sensor_id;sensor_type;location;lat;lon;timestamp;pressure;altitude;pressure_sealevel;temperature;humidity
12358;BME280;6243;51.244;6.774;2023-04-23T00:02:15;152783.34;;;21.05;58.29
12358;BME280;6243;51.244;6.774;2023-04-23T00:04:48;152716.66;;;20.79;58.42
12358;BME280;6243;51.244;6.774;2023-04-23T00:07:18;152760.25;;;20.96;58.42
12358;BME280;6243;51.244;6.774;2023-04-23T00:09:44;152784.66;;;21.06;58.28
12358;BME280;6243;51.244;6.774;2023-04-23T00:12:11;152935.84;;;21.65;57.12
12358;BME280;6243;51.244;6.774;2023-04-23T00:14:36;152901.25;;;21.52;57.27
12358;BME280;6243;51.244;6.774;2023-04-23T00:17:02;152848.69;;;21.31;57.82
12358;BME280;6243;51.244;6.774;2023-04-23T00:19:27;152798.72;;;21.11;58.05
12358;BME280;6243;51.244;6.774;2023-04-23T00:21:53;152751.25;;;20.93;58.71
12358;BME280;6243;51.244;6.774;2023-04-23T00:24:20;152793.59;;;21.09;58.59
12358;BME280;6243;51.244;6.774;2023-04-23T00:26:45;152865.38;;;21.38;57.75
12358;BME280;6243;51.244;6.774;2023-04-23T00:29:11;152835.91;;;21.26;57.81
12358;BME280;6243;51.244;6.774;2023-04-23T00:31:36;152789.78;;;21.08;58.53
12358;BME280;6243;51.244;6.774;2023-04-23T00:34:02;152698.72;;;20.72;59.45
12358;BME280;6243;51.244;6.774;2023-04-23T00:36:28;152811.53;;;21.16;58.24
12358;BME280;6243;51.244;6.774;2023-04-23T00:38:53;152692.31;;;20.70;59.35
12358;BME280;6243;51.244;6.774;2023-04-23T00:41:20;152638.53;;;20.48;60.27
12358;BME280;6243;51.244;6.774;2023-04-23T00:43:46;152815.38;;;21.18;58.72
12358;BME280;6243;51.244;6.774;2023-04-23T00:46:11;152739.72;;;20.88;59.38
12358;BME280;6243;51.244;6.774;2023-04-23T00:48:37;152734.59;;;20.86;59.27
12358;BME280;6243;51.244;6.774;2023-04-23T00:51:04;152670.53;;;20.61;60.04
12358;BME280;6243;51.244;6.774;2023-04-23T00:53:31;152798.72;;;21.11;59.25
12358;BME280;6243;51.244;6.774;2023-04-23T00:55:56;152753.84;;;20.94;59.23
12358;BME280;6243;51.244;6.774;2023-04-23T00:58:24;152682.06;;;20.66;60.30
12358;BME280;6243;51.244;6.774;2023-04-23T01:00:50;152669.25;;;20.61;61.03
12358;BME280;6243;51.244;6.774;2023-04-23T01:03:16;152579.59;;;20.25;61.41
12358;BME280;6243;51.244;6.774;2023-04-23T01:05:43;152789.78;;;21.08;59.96
12358;BME280;6243;51.244;6.774;2023-04-23T01:08:09;152480.97;;;19.87;62.73
12358;BME280;6243;51.244;6.774;2023-04-23T01:10:38;152611.59;;;20.38;61.85
12358;BME280;6243;51.244;6.774;2023-04-23T01:13:05;152782.06;;;21.05;59.76
12358;BME280;6243;51.244;6.774;2023-04-23T01:15:32;152679.53;;;20.65;60.04
12358;BME280;6243;51.244;6.774;2023-04-23T01:17:57;152694.88;;;20.71;60.44
12358;BME280;6243;51.244;6.774;2023-04-23T01:20:23;152753.84;;;20.94;59.57
12358;BME280;6243;51.244;6.774;2023-04-23T01:22:50;152733.31;;;20.86;60.06
12358;BME280;6243;51.244;6.774;2023-04-23T01:25:15;152828.19;;;21.23;59.01
12358;BME280;6243;51.244;6.774;2023-04-23T01:27:41;152920.47;;;21.59;58.06
12358;BME280;6243;51.244;6.774;2023-04-23T01:30:08;153000.00;;;21.90;57.27
12358;BME280;6243;51.244;6.774;2023-04-23T01:32:34;152625.72;;;20.43;60.65
12358;BME280;6243;51.244;6.774;2023-04-23T01:35:00;152910.25;;;21.55;58.01
12358;BME280;6243;51.244;6.774;2023-04-23T01:37:27;152971.75;;;21.79;57.19
12358;BME280;6243;51.244;6.774;2023-04-23T01:39:54;152821.78;;;21.20;58.24
12358;BME280;6243;51.244;6.774;2023-04-23T01:42:20;152914.06;;;21.57;57.92
12358;BME280;6243;51.244;6.774;2023-04-23T01:44:46;152929.50;;;21.63;57.42
12358;BME280;6243;51.244;6.774;2023-04-23T01:47:11;152905.13;;;21.53;57.46
12358;BME280;6243;51.244;6.774;2023-04-23T01:49:37;152887.16;;;21.46;57.72
12358;BME280;6243;51.244;6.774;2023-04-23T01:52:02;152952.56;;;21.72;57.00
12358;BME280;6243;51.244;6.774;2023-04-23T01:54:28;152925.59;;;21.61;56.92
12358;BME280;6243;51.244;6.774;2023-04-23T01:56:55;152861.50;;;21.36;57.50
12358;BME280;6243;51.244;6.774;2023-04-23T01:59:20;152675.66;;;20.63;59.43
12358;BME280;6243;51.244;6.774;2023-04-23T02:04:37;152875.63;;;21.42;57.63
12358;BME280;6243;51.244;6.774;2023-04-23T02:07:03;152509.13;;;19.98;60.18
12358;BME280;6243;51.244;6.774;2023-04-23T02:09:28;152683.34;;;20.66;59.34
12358;BME280;6243;51.244;6.774;2023-04-23T02:11:55;152825.63;;;21.22;57.87
12358;BME280;6243;51.244;6.774;2023-04-23T02:14:21;152769.19;;;21.00;58.08
12358;BME280;6243;51.244;6.774;2023-04-23T02:16:46;152624.41;;;20.43;59.94
12358;BME280;6243;51.244;6.774;2023-04-23T02:19:12;152748.72;;;20.92;58.32
12358;BME280;6243;51.244;6.774;2023-04-23T02:21:37;152664.13;;;20.59;58.96
12358;BME280;6243;51.244;6.774;2023-04-23T02:24:03;152652.59;;;20.54;59.53
12358;BME280;6243;51.244;6.774;2023-04-23T02:26:28;152659.00;;;20.57;59.36
12358;BME280;6243;51.244;6.774;2023-04-23T02:28:55;152311.94;;;19.20;62.76
12358;BME280;6243;51.244;6.774;2023-04-23T02:31:21;152643.66;;;20.50;59.81
12358;BME280;6243;51.244;6.774;2023-04-23T02:33:46;152518.06;;;20.01;60.75
12358;BME280;6243;51.244;6.774;2023-04-23T02:36:12;152751.25;;;20.93;58.59
12358;BME280;6243;51.244;6.774;2023-04-23T02:38:37;152756.38;;;20.95;58.36
12358;BME280;6243;51.244;6.774;2023-04-23T02:41:03;152755.13;;;20.94;58.38
12358;BME280;6243;51.244;6.774;2023-04-23T02:43:29;152749.94;;;20.92;58.43
12358;BME280;6243;51.244;6.774;2023-04-23T02:45:56;152734.59;;;20.86;58.85
12358;BME280;6243;51.244;6.774;2023-04-23T02:48:21;152716.66;;;20.79;59.29
12358;BME280;6243;51.244;6.774;2023-04-23T02:50:47;152729.47;;;20.84;58.81
12358;BME280;6243;51.244;6.774;2023-04-23T02:53:12;152782.06;;;21.05;58.55
12358;BME280;6243;51.244;6.774;2023-04-23T02:55:38;152657.72;;;20.56;59.98
12358;BME280;6243;51.244;6.774;2023-04-23T02:58:03;152756.38;;;20.95;59.12
12358;BME280;6243;51.244;6.774;2023-04-23T03:00:29;152691.06;;;20.69;59.46
12358;BME280;6243;51.244;6.774;2023-04-23T03:02:56;152455.34;;;19.76;63.20
12358;BME280;6243;51.244;6.774;2023-04-23T03:05:22;152676.94;;;20.64;60.56
12358;BME280;6243;51.244;6.774;2023-04-23T03:07:47;152504.00;;;19.96;62.77
12358;BME280;6243;51.244;6.774;2023-04-23T03:10:13;152537.28;;;20.09;61.81
12358;BME280;6243;51.244;6.774;2023-04-23T03:12:38;152533.47;;;20.07;62.64
12358;BME280;6243;51.244;6.774;2023-04-23T03:15:04;152670.53;;;20.61;61.14
12358;BME280;6243;51.244;6.774;2023-04-23T03:17:30;152756.38;;;20.95;59.84
12358;BME280;6243;51.244;6.774;2023-04-23T03:19:57;152629.53;;;20.45;60.96
12358;BME280;6243;51.244;6.774;2023-04-23T03:22:22;152568.03;;;20.21;62.06
12358;BME280;6243;51.244;6.774;2023-04-23T03:24:48;152627.00;;;20.44;61.15
12358;BME280;6243;51.244;6.774;2023-04-23T03:27:13;152530.88;;;20.06;61.34
12358;BME280;6243;51.244;6.774;2023-04-23T03:29:39;152694.88;;;20.71;60.49
12358;BME280;6243;51.244;6.774;2023-04-23T03:32:04;152306.81;;;19.18;65.13
12358;BME280;6243;51.244;6.774;2023-04-23T03:34:30;152466.84;;;19.81;63.21
12358;BME280;6243;51.244;6.774;2023-04-23T03:36:57;152469.44;;;19.82;62.77
12358;BME280;6243;51.244;6.774;2023-04-23T03:39:22;152634.66;;;20.47;61.85
12358;BME280;6243;51.244;6.774;2023-04-23T03:41:48;152131.53;;;18.49;66.63
12358;BME280;6243;51.244;6.774;2023-04-23T03:44:13;152466.84;;;19.81;63.65
12358;BME280;6243;51.244;6.774;2023-04-23T03:46:39;152457.91;;;19.77;63.57
12358;BME280;6243;51.244;6.774;2023-04-23T03:49:04;152478.38;;;19.86;64.37
12358;BME280;6243;51.244;6.774;2023-04-23T03:51:30;152624.41;;;20.43;62.33
12358;BME280;6243;51.244;6.774;2023-04-23T03:53:57;152429.75;;;19.66;63.86
12358;BME280;6243;51.244;6.774;2023-04-23T03:56:22;152486.06;;;19.89;64.40
12358;BME280;6243;51.244;6.774;2023-04-23T03:58:48;152543.69;;;20.11;63.38
12358;BME280;6243;51.244;6.774;2023-04-23T04:01:13;152592.44;;;20.30;62.67
12358;BME280;6243;51.244;6.774;2023-04-23T04:03:39;152425.88;;;19.65;65.19
12358;BME280;6243;51.244;6.774;2023-04-23T04:06:04;152414.34;;;19.60;64.93
12358;BME280;6243;51.244;6.774;2023-04-23T04:08:30;152308.13;;;19.19;66.29
12358;BME280;6243;51.244;6.774;2023-04-23T04:10:57;152399.03;;;19.54;64.81
12358;BME280;6243;51.244;6.774;2023-04-23T04:13:22;152384.91;;;19.49;64.63
12358;BME280;6243;51.244;6.774;2023-04-23T04:15:48;152274.81;;;19.05;67.17
12358;BME280;6243;51.244;6.774;2023-04-23T04:18:13;152186.56;;;18.71;68.07
12358;BME280;6243;51.244;6.774;2023-04-23T04:20:39;152296.59;;;19.14;66.78
12358;BME280;6243;51.244;6.774;2023-04-23T04:23:05;152370.88;;;19.43;66.20
12358;BME280;6243;51.244;6.774;2023-04-23T04:25:30;152416.94;;;19.61;66.13
12358;BME280;6243;51.244;6.774;2023-04-23T04:27:57;152451.50;;;19.75;65.31
12358;BME280;6243;51.244;6.774;2023-04-23T04:30:23;152438.69;;;19.70;65.54
12358;BME280;6243;51.244;6.774;2023-04-23T04:32:48;152352.94;;;19.36;67.43
12358;BME280;6243;51.244;6.774;2023-04-23T04:35:14;152346.50;;;19.34;69.06
12358;BME280;6243;51.244;6.774;2023-04-23T04:37:39;152231.31;;;18.88;69.94
12358;BME280;6243;51.244;6.774;2023-04-23T04:40:06;152265.88;;;19.02;70.64
12358;BME280;6243;51.244;6.774;2023-04-23T04:42:31;152228.75;;;18.87;71.75
12358;BME280;6243;51.244;6.774;2023-04-23T04:44:58;152363.16;;;19.40;69.54
12358;BME280;6243;51.244;6.774;2023-04-23T04:47:24;152442.50;;;19.71;68.04
12358;BME280;6243;51.244;6.774;2023-04-23T04:49:50;152463.03;;;19.79;66.39
12358;BME280;6243;51.244;6.774;2023-04-23T04:52:15;152340.09;;;19.31;67.71
12358;BME280;6243;51.244;6.774;2023-04-23T04:54:41;152303.00;;;19.17;70.10
12358;BME280;6243;51.244;6.774;2023-04-23T04:57:06;152442.50;;;19.71;68.77
12358;BME280;6243;51.244;6.774;2023-04-23T04:59:32;152582.13;;;20.26;65.82
12358;BME280;6243;51.244;6.774;2023-04-23T05:01:59;152451.50;;;19.75;68.82
12358;BME280;6243;51.244;6.774;2023-04-23T05:04:24;152479.66;;;19.86;67.06
12358;BME280;6243;51.244;6.774;2023-04-23T05:06:50;152666.72;;;20.60;64.68
12358;BME280;6243;51.244;6.774;2023-04-23T05:09:16;152500.19;;;19.94;67.99
12358;BME280;6243;51.244;6.774;2023-04-23T05:11:41;152582.13;;;20.26;66.43
12358;BME280;6243;51.244;6.774;2023-04-23T05:14:07;152660.28;;;20.57;64.72
12358;BME280;6243;51.244;6.774;2023-04-23T05:16:32;152615.47;;;20.39;65.18
12358;BME280;6243;51.244;6.774;2023-04-23T05:18:59;152614.19;;;20.39;64.19
12358;BME280;6243;51.244;6.774;2023-04-23T05:21:25;152773.06;;;21.01;62.94
12358;BME280;6243;51.244;6.774;2023-04-23T05:23:51;152729.47;;;20.84;63.27
12358;BME280;6243;51.244;6.774;2023-04-23T05:26:16;152730.78;;;20.85;63.01
12358;BME280;6243;51.244;6.774;2023-04-23T05:28:41;152495.00;;;19.92;65.44
12358;BME280;6243;51.244;6.774;2023-04-23T05:31:07;152425.88;;;19.65;67.85
12358;BME280;6243;51.244;6.774;2023-04-23T05:33:32;152469.44;;;19.82;67.12
12358;BME280;6243;51.244;6.774;2023-04-23T05:35:59;152691.06;;;20.69;64.53
12358;BME280;6243;51.244;6.774;2023-04-23T05:38:25;152555.22;;;20.16;64.23
12358;BME280;6243;51.244;6.774;2023-04-23T05:40:51;152646.19;;;20.51;65.31
12358;BME280;6243;51.244;6.774;2023-04-23T05:43:16;152580.91;;;20.26;66.84
12358;BME280;6243;51.244;6.774;2023-04-23T05:45:42;152746.13;;;20.91;64.18
12358;BME280;6243;51.244;6.774;2023-04-23T05:48:07;152693.59;;;20.70;64.18
12358;BME280;6243;51.244;6.774;2023-04-23T05:50:33;152758.94;;;20.96;63.61
12358;BME280;6243;51.244;6.774;2023-04-23T05:53:00;152635.94;;;20.47;65.19
12358;BME280;6243;51.244;6.774;2023-04-23T05:55:26;152739.72;;;20.88;63.72
12358;BME280;6243;51.244;6.774;2023-04-23T05:57:51;152671.81;;;20.62;64.30
12358;BME280;6243;51.244;6.774;2023-04-23T06:00:17;152607.78;;;20.36;64.36
12358;BME280;6243;51.244;6.774;2023-04-23T06:02:42;152552.63;;;20.15;66.88
12358;BME280;6243;51.244;6.774;2023-04-23T06:05:08;152573.19;;;20.23;66.39
12358;BME280;6243;51.244;6.774;2023-04-23T06:07:34;152566.75;;;20.20;66.44
12358;BME280;6243;51.244;6.774;2023-04-23T06:10:01;152568.03;;;20.21;66.84
12358;BME280;6243;51.244;6.774;2023-04-23T06:12:27;152602.66;;;20.34;65.62
12358;BME280;6243;51.244;6.774;2023-04-23T06:14:52;152755.13;;;20.94;64.46
12358;BME280;6243;51.244;6.774;2023-04-23T06:17:18;152805.13;;;21.14;63.12
12358;BME280;6243;51.244;6.774;2023-04-23T06:19:43;152682.06;;;20.66;64.44
12358;BME280;6243;51.244;6.774;2023-04-23T06:22:09;152597.53;;;20.32;66.96
12358;BME280;6243;51.244;6.774;2023-04-23T06:24:34;152571.91;;;20.22;67.71
12358;BME280;6243;51.244;6.774;2023-04-23T06:27:01;152779.47;;;21.04;64.63
12358;BME280;6243;51.244;6.774;2023-04-23T06:29:27;152878.16;;;21.43;63.13
12358;BME280;6243;51.244;6.774;2023-04-23T06:31:54;152757.66;;;20.95;64.15
12358;BME280;6243;51.244;6.774;2023-04-23T06:34:19;152515.53;;;20.00;68.52
12358;BME280;6243;51.244;6.774;2023-04-23T06:36:45;152600.06;;;20.33;66.80
12358;BME280;6243;51.244;6.774;2023-04-23T06:39:10;152589.84;;;20.29;67.79
12358;BME280;6243;51.244;6.774;2023-04-23T06:41:36;152726.88;;;20.83;65.72
12358;BME280;6243;51.244;6.774;2023-04-23T06:44:03;152491.19;;;19.91;68.99
12358;BME280;6243;51.244;6.774;2023-04-23T06:46:29;152794.88;;;21.10;65.55
12358;BME280;6243;51.244;6.774;2023-04-23T06:48:54;152962.81;;;21.76;62.89
12358;BME280;6243;51.244;6.774;2023-04-23T06:51:20;152816.66;;;21.18;65.06
12358;BME280;6243;51.244;6.774;2023-04-23T06:53:45;152697.47;;;20.72;65.57
12358;BME280;6243;51.244;6.774;2023-04-23T06:56:11;152659.00;;;20.57;66.61
12358;BME280;6243;51.244;6.774;2023-04-23T06:58:36;152869.22;;;21.39;63.65
12358;BME280;6243;51.244;6.774;2023-04-23T07:01:03;152848.69;;;21.31;65.14
12358;BME280;6243;51.244;6.774;2023-04-23T07:03:29;152719.25;;;20.80;66.17
12358;BME280;6243;51.244;6.774;2023-04-23T07:05:55;152953.81;;;21.72;63.81
12358;BME280;6243;51.244;6.774;2023-04-23T07:08:20;152668.00;;;20.60;67.08
12358;BME280;6243;51.244;6.774;2023-04-23T07:10:46;152755.13;;;20.94;65.85
12358;BME280;6243;51.244;6.774;2023-04-23T07:13:11;152982.09;;;21.83;62.84
12358;BME280;6243;51.244;6.774;2023-04-23T07:15:37;152996.19;;;21.89;63.23
12358;BME280;6243;51.244;6.774;2023-04-23T07:18:04;153047.47;;;22.09;62.31
12358;BME280;6243;51.244;6.774;2023-04-23T07:20:30;152998.78;;;21.90;62.50
12358;BME280;6243;51.244;6.774;2023-04-23T07:22:56;153052.59;;;22.11;62.04
12358;BME280;6243;51.244;6.774;2023-04-23T07:25:22;152907.66;;;21.54;63.33
12358;BME280;6243;51.244;6.774;2023-04-23T07:27:48;153059.00;;;22.14;62.33
12358;BME280;6243;51.244;6.774;2023-04-23T07:30:13;153284.84;;;23.02;60.21
12358;BME280;6243;51.244;6.774;2023-04-23T07:32:39;153333.63;;;23.21;59.83
12358;BME280;6243;51.244;6.774;2023-04-23T07:35:07;153135.97;;;22.44;60.29
12358;BME280;6243;51.244;6.774;2023-04-23T07:37:32;153263.03;;;22.94;60.34
12358;BME280;6243;51.244;6.774;2023-04-23T07:39:58;153038.50;;;22.06;61.18
12358;BME280;6243;51.244;6.774;2023-04-23T07:42:23;153273.28;;;22.98;59.21
12358;BME280;6243;51.244;6.774;2023-04-23T07:44:49;153143.69;;;22.47;59.93
12358;BME280;6243;51.244;6.774;2023-04-23T07:47:14;153352.91;;;23.29;58.53
12358;BME280;6243;51.244;6.774;2023-04-23T07:49:40;153130.84;;;22.42;59.73
12358;BME280;6243;51.244;6.774;2023-04-23T07:52:07;153254.06;;;22.90;58.95
12358;BME280;6243;51.244;6.774;2023-04-23T07:54:32;153161.66;;;22.54;59.90
12358;BME280;6243;51.244;6.774;2023-04-23T07:56:58;153198.88;;;22.69;59.31
12358;BME280;6243;51.244;6.774;2023-04-23T07:59:23;153310.53;;;23.12;58.54
12358;BME280;6243;51.244;6.774;2023-04-23T08:01:49;153102.63;;;22.31;59.47
12358;BME280;6243;51.244;6.774;2023-04-23T08:04:14;153359.31;;;23.32;58.01
12358;BME280;6243;51.244;6.774;2023-04-23T08:06:40;153390.16;;;23.44;57.33
12358;BME280;6243;51.244;6.774;2023-04-23T08:09:07;153370.91;;;23.36;57.35
12358;BME280;6243;51.244;6.774;2023-04-23T08:11:32;153250.19;;;22.89;57.59
12358;BME280;6243;51.244;6.774;2023-04-23T08:13:58;153477.44;;;23.78;56.46
12358;BME280;6243;51.244;6.774;2023-04-23T08:16:23;153386.31;;;23.42;57.34
12358;BME280;6243;51.244;6.774;2023-04-23T08:18:49;153323.38;;;23.17;57.03
12358;BME280;6243;51.244;6.774;2023-04-23T08:21:14;153503.16;;;23.88;57.19
12358;BME280;6243;51.244;6.774;2023-04-23T08:23:40;153527.56;;;23.97;55.59
12358;BME280;6243;51.244;6.774;2023-04-23T08:26:07;153327.19;;;23.19;56.92
12358;BME280;6243;51.244;6.774;2023-04-23T08:28:32;153508.28;;;23.90;55.99
12358;BME280;6243;51.244;6.774;2023-04-23T08:30:59;153328.50;;;23.19;56.45
12358;BME280;6243;51.244;6.774;2023-04-23T08:33:24;153703.53;;;24.66;55.22
12358;BME280;6243;51.244;6.774;2023-04-23T08:35:50;153896.34;;;25.42;53.22
12358;BME280;6243;51.244;6.774;2023-04-23T08:38:15;153685.59;;;24.59;54.06
12358;BME280;6243;51.244;6.774;2023-04-23T08:40:41;153683.00;;;24.58;54.65
12358;BME280;6243;51.244;6.774;2023-04-23T08:43:13;153896.34;;;25.42;52.56
12358;BME280;6243;51.244;6.774;2023-04-23T08:45:40;153540.41;;;24.03;53.41
12358;BME280;6243;51.244;6.774;2023-04-23T08:48:10;153665.03;;;24.51;52.65
12358;BME280;6243;51.244;6.774;2023-04-23T08:50:36;153661.19;;;24.50;52.19
12358;BME280;6243;51.244;6.774;2023-04-23T08:53:03;153603.38;;;24.27;52.72
12358;BME280;6243;51.244;6.774;2023-04-23T08:55:30;153635.47;;;24.40;52.59
12358;BME280;6243;51.244;6.774;2023-04-23T08:57:58;153698.41;;;24.64;52.46
12358;BME280;6243;51.244;6.774;2023-04-23T09:00:25;153835.97;;;25.18;51.20
12358;BME280;6243;51.244;6.774;2023-04-23T09:02:51;153798.69;;;25.04;51.46
12358;BME280;6243;51.244;6.774;2023-04-23T09:05:17;154049.44;;;26.02;49.75
12358;BME280;6243;51.244;6.774;2023-04-23T09:07:42;153861.66;;;25.28;50.77
12358;BME280;6243;51.244;6.774;2023-04-23T09:10:09;153792.25;;;25.01;50.33
12358;BME280;6243;51.244;6.774;2023-04-23T09:12:36;153816.69;;;25.11;49.44
12358;BME280;6243;51.244;6.774;2023-04-23T09:15:02;153990.28;;;25.79;49.52
12358;BME280;6243;51.244;6.774;2023-04-23T09:17:31;153869.38;;;25.31;49.05
12358;BME280;6243;51.244;6.774;2023-04-23T09:19:57;154201.25;;;26.61;48.27
12358;BME280;6243;51.244;6.774;2023-04-23T09:22:37;153999.28;;;25.82;48.53
12358;BME280;6243;51.244;6.774;2023-04-23T09:25:03;154049.44;;;26.02;48.18
12358;BME280;6243;51.244;6.774;2023-04-23T09:27:29;154102.22;;;26.23;48.50
12358;BME280;6243;51.244;6.774;2023-04-23T09:29:54;153717.69;;;24.72;49.70
12358;BME280;6243;51.244;6.774;2023-04-23T09:32:31;153886.09;;;25.38;49.47
12358;BME280;6243;51.244;6.774;2023-04-23T09:34:57;154027.56;;;25.93;48.91
12358;BME280;6243;51.244;6.774;2023-04-23T09:37:24;153798.69;;;25.04;49.57
12358;BME280;6243;51.244;6.774;2023-04-23T09:39:51;153999.28;;;25.82;49.65
12358;BME280;6243;51.244;6.774;2023-04-23T09:42:16;154238.63;;;26.76;48.37
12358;BME280;6243;51.244;6.774;2023-04-23T09:44:42;154104.81;;;26.24;48.89
12358;BME280;6243;51.244;6.774;2023-04-23T09:47:08;153806.41;;;25.07;49.47
12358;BME280;6243;51.244;6.774;2023-04-23T09:49:44;154263.03;;;26.86;48.08
12358;BME280;6243;51.244;6.774;2023-04-23T09:52:09;154470.34;;;27.67;46.59
12358;BME280;6243;51.244;6.774;2023-04-23T09:54:35;154115.09;;;26.28;47.67
12358;BME280;6243;51.244;6.774;2023-04-23T09:57:00;154210.28;;;26.65;47.37
12358;BME280;6243;51.244;6.774;2023-04-23T09:59:27;154189.69;;;26.57;47.37
12358;BME280;6243;51.244;6.774;2023-04-23T10:01:53;154391.75;;;27.36;46.75
12358;BME280;6243;51.244;6.774;2023-04-23T10:04:20;154435.56;;;27.53;45.84
12358;BME280;6243;51.244;6.774;2023-04-23T10:06:52;154295.25;;;26.98;46.27
12358;BME280;6243;51.244;6.774;2023-04-23T10:09:18;154247.63;;;26.80;46.40
12358;BME280;6243;51.244;6.774;2023-04-23T10:11:44;154118.91;;;26.29;46.63
12358;BME280;6243;51.244;6.774;2023-04-23T10:14:10;154024.97;;;25.92;47.66
12358;BME280;6243;51.244;6.774;2023-04-23T10:16:36;154149.81;;;26.41;46.60
12358;BME280;6243;51.244;6.774;2023-04-23T10:19:04;153910.56;;;25.48;47.22
12358;BME280;6243;51.244;6.774;2023-04-23T10:21:32;154071.31;;;26.11;47.16
12358;BME280;6243;51.244;6.774;2023-04-23T10:24:01;153880.94;;;25.36;47.29
12358;BME280;6243;51.244;6.774;2023-04-23T10:26:28;153907.97;;;25.47;47.21
12358;BME280;6243;51.244;6.774;2023-04-23T10:28:56;153883.56;;;25.37;46.34
12358;BME280;6243;51.244;6.774;2023-04-23T10:31:25;153953.00;;;25.64;46.15
12358;BME280;6243;51.244;6.774;2023-04-23T10:33:53;154194.81;;;26.59;45.40
12358;BME280;6243;51.244;6.774;2023-04-23T10:36:22;154202.56;;;26.62;45.75
12358;BME280;6243;51.244;6.774;2023-04-23T10:38:47;154180.69;;;26.53;44.96
12358;BME280;6243;51.244;6.774;2023-04-23T10:41:16;153983.84;;;25.76;45.83
12358;BME280;6243;51.244;6.774;2023-04-23T10:43:44;154055.88;;;26.04;45.79
12358;BME280;6243;51.244;6.774;2023-04-23T10:46:27;154081.66;;;26.15;45.68
12358;BME280;6243;51.244;6.774;2023-04-23T10:49:05;154144.66;;;26.39;45.38
12358;BME280;6243;51.244;6.774;2023-04-23T10:51:34;154223.13;;;26.70;44.42
12358;BME280;6243;51.244;6.774;2023-04-23T10:54:01;154192.28;;;26.58;44.35
12358;BME280;6243;51.244;6.774;2023-04-23T10:56:30;154483.22;;;27.72;44.01
12358;BME280;6243;51.244;6.774;2023-04-23T10:58:55;154282.34;;;26.93;43.27
12358;BME280;6243;51.244;6.774;2023-04-23T11:01:23;154088.09;;;26.17;43.71
12358;BME280;6243;51.244;6.774;2023-04-23T11:03:50;154480.63;;;27.71;42.42
12358;BME280;6243;51.244;6.774;2023-04-23T11:06:19;154053.25;;;26.03;43.59
12358;BME280;6243;51.244;6.774;2023-04-23T11:09:26;154158.78;;;26.45;43.86
12358;BME280;6243;51.244;6.774;2023-04-23T11:11:54;154103.50;;;26.23;42.83
12358;BME280;6243;51.244;6.774;2023-04-23T11:14:20;154411.13;;;27.43;42.37
12358;BME280;6243;51.244;6.774;2023-04-23T11:16:57;154138.22;;;26.37;42.34
12358;BME280;6243;51.244;6.774;2023-04-23T11:19:23;154032.72;;;25.95;43.07
12358;BME280;6243;51.244;6.774;2023-04-23T11:21:55;153878.38;;;25.35;43.81
12358;BME280;6243;51.244;6.774;2023-04-23T11:24:21;154006.97;;;25.85;43.64
12358;BME280;6243;51.244;6.774;2023-04-23T11:26:47;154112.47;;;26.27;43.10
12358;BME280;6243;51.244;6.774;2023-04-23T11:29:17;154442.03;;;27.56;41.75
12358;BME280;6243;51.244;6.774;2023-04-23T11:31:45;154412.41;;;27.44;41.50
12358;BME280;6243;51.244;6.774;2023-04-23T11:34:10;154319.69;;;27.08;42.57
12358;BME280;6243;51.244;6.774;2023-04-23T11:36:36;154198.72;;;26.60;42.77
12358;BME280;6243;51.244;6.774;2023-04-23T11:39:01;154022.44;;;25.91;44.08
12358;BME280;6243;51.244;6.774;2023-04-23T11:41:27;153991.56;;;25.79;42.83
12358;BME280;6243;51.244;6.774;2023-04-23T11:43:52;154127.94;;;26.33;42.59
12358;BME280;6243;51.244;6.774;2023-04-23T11:46:19;154394.38;;;27.37;41.24
12358;BME280;6243;51.244;6.774;2023-04-23T11:48:45;154256.66;;;26.83;40.83
12358;BME280;6243;51.244;6.774;2023-04-23T11:51:12;154269.47;;;26.88;40.24
12358;BME280;6243;51.244;6.774;2023-04-23T11:53:44;154396.97;;;27.38;39.74
12358;BME280;6243;51.244;6.774;2023-04-23T11:56:10;154624.88;;;28.27;38.86
12358;BME280;6243;51.244;6.774;2023-04-23T11:58:35;154311.97;;;27.05;39.83
12358;BME280;6243;51.244;6.774;2023-04-23T12:01:01;154180.69;;;26.53;40.45
12358;BME280;6243;51.244;6.774;2023-04-23T12:03:28;154221.88;;;26.69;40.21
12358;BME280;6243;51.244;6.774;2023-04-23T12:05:53;154475.47;;;27.69;39.48
12358;BME280;6243;51.244;6.774;2023-04-23T12:08:20;154215.44;;;26.67;39.74
12358;BME280;6243;51.244;6.774;2023-04-23T12:10:47;154573.38;;;28.07;38.94
12358;BME280;6243;51.244;6.774;2023-04-23T12:13:14;154666.09;;;28.43;38.54
12358;BME280;6243;51.244;6.774;2023-04-23T12:15:44;154472.94;;;27.68;38.56
12358;BME280;6243;51.244;6.774;2023-04-23T12:18:10;154357.00;;;27.22;37.30
12358;BME280;6243;51.244;6.774;2023-04-23T12:20:37;154493.50;;;27.76;37.61
12358;BME280;6243;51.244;6.774;2023-04-23T12:23:03;154429.13;;;27.51;37.09
12358;BME280;6243;51.244;6.774;2023-04-23T12:25:29;154436.88;;;27.54;36.95
12358;BME280;6243;51.244;6.774;2023-04-23T12:27:58;154369.88;;;27.27;37.20
12358;BME280;6243;51.244;6.774;2023-04-23T12:30:27;154463.91;;;27.64;38.00
12358;BME280;6243;51.244;6.774;2023-04-23T12:32:58;154190.97;;;26.57;37.84
12358;BME280;6243;51.244;6.774;2023-04-23T12:35:38;154290.09;;;26.96;37.88
12358;BME280;6243;51.244;6.774;2023-04-23T12:38:03;154145.97;;;26.40;38.65
12358;BME280;6243;51.244;6.774;2023-04-23T12:40:29;154413.72;;;27.45;37.92
12358;BME280;6243;51.244;6.774;2023-04-23T12:42:55;154323.53;;;27.09;37.97
12358;BME280;6243;51.244;6.774;2023-04-23T12:45:20;154519.28;;;27.86;37.84
12358;BME280;6243;51.244;6.774;2023-04-23T12:47:46;154557.94;;;28.01;36.95
12358;BME280;6243;51.244;6.774;2023-04-23T12:50:11;154695.72;;;28.55;36.09
12358;BME280;6243;51.244;6.774;2023-04-23T12:52:38;154485.78;;;27.73;36.72
12358;BME280;6243;51.244;6.774;2023-04-23T12:55:04;154728.00;;;28.67;35.21
12358;BME280;6243;51.244;6.774;2023-04-23T12:57:30;154865.91;;;29.21;35.33
12358;BME280;6243;51.244;6.774;2023-04-23T12:59:55;154481.91;;;27.71;36.05